Time;durP1;ratioP1;P1;durP2;ratioP2;P2;SDS_P1;SDS_P2;PMS_P1;PMS_P2;Temp;Humidity;BMP_temperature;BMP_pressure;BME280_temperature;BME280_humidity;BME280_pressure;Samples;Min_cycle;Max_cycle;Signal;HPM_P1;HPM_P2
2021/11/10 00:00:38;;;;;;;8.00;2.88;;;;;;;;;;5034891;28;20480;-66
2021/11/10 00:03:03;;;;;;;10.35;2.30;;;;;;;;;;5039107;28;20141;-66
2021/11/10 00:05:29;;;;;;;7.72;2.97;;;;;;;;;;5040671;28;20039;-66
2021/11/10 00:07:54;;;;;;;5.60;1.35;;;;;;;;;;5038662;28;20544;-66
2021/11/10 00:10:19;;;;;;;4.82;2.08;;;;;;;;;;5037213;28;20021;-66
2021/11/10 00:12:45;;;;;;;13.38;3.40;;;;;;;;;;5035972;28;20486;-66
2021/11/10 00:15:11;;;;;;;6.90;3.97;;;;;;;;;;5035002;28;20645;-67
2021/11/10 00:17:36;;;;;;;14.18;3.83;;;;;;;;;;5033264;28;20074;-65
2021/11/10 00:20:03;;;;;;;8.85;1.80;;;;;;;;;;5036649;28;20551;-66
2021/11/10 00:22:28;;;;;;;5.35;1.92;;;;;;;;;;5035700;28;20590;-66
2021/11/10 00:24:53;;;;;;;3.60;2.42;;;;;;;;;;5039808;28;20479;-66
2021/11/10 00:27:20;;;;;;;7.10;2.72;;;;;;;;;;5037549;28;20072;-66
2021/11/10 00:29:45;;;;;;;8.38;2.72;;;;;;;;;;5035997;28;20074;-66
2021/11/10 00:32:10;;;;;;;3.35;2.13;;;;;;;;;;5036566;28;20033;-65
2021/11/10 00:34:36;;;;;;;2.00;1.45;;;;;;;;;;5036228;28;20079;-66
2021/11/10 00:37:01;;;;;;;4.72;1.60;;;;;;;;;;5036593;28;20083;-66
2021/11/10 00:39:26;;;;;;;2.17;1.70;;;;;;;;;;5037415;28;20035;-66
2021/11/10 00:41:52;;;;;;;4.57;2.13;;;;;;;;;;5036979;28;20031;-66
2021/11/10 00:44:17;;;;;;;3.83;2.15;;;;;;;;;;5039186;28;20079;-67
2021/11/10 00:46:42;;;;;;;7.53;1.63;;;;;;;;;;5034278;28;20528;-66
2021/11/10 00:49:08;;;;;;;3.92;2.20;;;;;;;;;;5035313;28;20081;-66
2021/11/10 00:51:33;;;;;;;6.03;1.33;;;;;;;;;;5037064;28;20025;-66
2021/11/10 00:53:59;;;;;;;5.95;1.80;;;;;;;;;;5036086;28;20440;-66
2021/11/10 00:56:24;;;;;;;3.67;1.70;;;;;;;;;;5035463;28;20419;-66
2021/11/10 00:58:50;;;;;;;3.65;2.00;;;;;;;;;;5033515;28;20412;-66
2021/11/10 01:01:15;;;;;;;3.58;1.77;;;;;;;;;;5034296;28;20052;-66
2021/11/10 01:03:40;;;;;;;4.20;1.73;;;;;;;;;;5036951;28;20730;-65
2021/11/10 01:06:06;;;;;;;1.90;1.23;;;;;;;;;;5034060;28;20048;-66
2021/11/10 01:08:31;;;;;;;4.65;3.20;;;;;;;;;;5038107;28;20033;-66
2021/11/10 01:10:57;;;;;;;3.22;2.03;;;;;;;;;;5037994;28;20586;-66
2021/11/10 01:13:23;;;;;;;3.50;1.88;;;;;;;;;;5037491;28;20033;-65
2021/11/10 01:15:49;;;;;;;4.35;2.17;;;;;;;;;;5036444;28;20036;-66
2021/11/10 01:18:14;;;;;;;2.20;1.52;;;;;;;;;;5036804;28;20523;-65
2021/11/10 01:20:40;;;;;;;4.18;2.25;;;;;;;;;;5034311;28;20029;-65
2021/11/10 01:23:05;;;;;;;4.43;1.70;;;;;;;;;;5035490;28;20068;-66
2021/11/10 01:25:31;;;;;;;5.13;1.67;;;;;;;;;;5033865;28;20025;-66
2021/11/10 01:27:56;;;;;;;3.00;1.27;;;;;;;;;;5033355;28;20151;-66
2021/11/10 01:30:22;;;;;;;1.50;1.13;;;;;;;;;;5035394;28;20082;-67
2021/11/10 01:32:48;;;;;;;20.35;1.77;;;;;;;;;;5036243;28;20397;-66
2021/11/10 01:35:14;;;;;;;4.78;1.35;;;;;;;;;;5036639;28;20392;-67
2021/11/10 01:37:39;;;;;;;11.90;1.55;;;;;;;;;;5037086;28;20025;-66
2021/11/10 01:40:05;;;;;;;6.38;2.65;;;;;;;;;;5033792;28;20021;-67
2021/11/10 01:42:30;;;;;;;3.70;1.65;;;;;;;;;;5034124;28;20028;-67
2021/11/10 01:44:56;;;;;;;3.75;1.65;;;;;;;;;;5034429;28;20108;-66
2021/11/10 01:47:22;;;;;;;7.35;2.40;;;;;;;;;;5038471;28;20464;-65
2021/11/10 01:49:47;;;;;;;2.70;1.20;;;;;;;;;;5033853;28;20175;-66
2021/11/10 01:52:12;;;;;;;4.72;2.20;;;;;;;;;;5036886;28;20025;-66
2021/11/10 01:54:39;;;;;;;6.22;2.42;;;;;;;;;;5035803;28;20021;-66
2021/11/10 01:57:05;;;;;;;9.45;3.05;;;;;;;;;;5037274;28;20025;-66
2021/11/10 01:59:32;;;;;;;8.73;2.08;;;;;;;;;;5036261;28;20100;-66
2021/11/10 02:01:58;;;;;;;7.80;2.00;;;;;;;;;;5031816;28;20053;-65
2021/11/10 02:04:25;;;;;;;4.95;1.88;;;;;;;;;;5037935;28;20113;-60
2021/11/10 02:06:50;;;;;;;1.63;0.82;;;;;;;;;;5035347;28;20024;-60
2021/11/10 02:09:16;;;;;;;1.23;0.60;;;;;;;;;;5035783;28;20025;-59
2021/11/10 02:11:41;;;;;;;4.53;0.75;;;;;;;;;;5036564;28;20383;-60
2021/11/10 02:14:06;;;;;;;5.82;1.00;;;;;;;;;;5033839;28;20404;-60
2021/11/10 02:16:36;;;;;;;3.10;0.77;;;;;;;;;;5033480;28;20092;-60
2021/11/10 02:19:03;;;;;;;0.90;0.50;;;;;;;;;;5036586;28;20056;-61
2021/11/10 02:21:31;;;;;;;1.50;0.88;;;;;;;;;;5036308;28;20017;-60
2021/11/10 02:23:58;;;;;;;0.40;0.20;;;;;;;;;;5034989;28;20108;-61
2021/11/10 02:26:25;;;;;;;0.93;0.43;;;;;;;;;;5038772;28;20033;-60
2021/11/10 02:28:50;;;;;;;0.73;0.32;;;;;;;;;;5035864;28;20093;-60
2021/11/10 02:31:16;;;;;;;4.68;0.30;;;;;;;;;;5034728;28;20528;-61
2021/11/10 02:33:42;;;;;;;0.55;0.50;;;;;;;;;;5037481;28;20700;-60
2021/11/10 02:36:08;;;;;;;4.45;0.28;;;;;;;;;;5035205;28;20048;-60
2021/11/10 02:38:34;;;;;;;0.28;0.20;;;;;;;;;;5038124;28;20052;-60
2021/11/10 02:41:00;;;;;;;3.20;0.57;;;;;;;;;;5036367;28;20051;-60
2021/11/10 02:43:26;;;;;;;0.85;0.20;;;;;;;;;;5036058;28;20021;-60
2021/11/10 02:45:52;;;;;;;0.90;0.60;;;;;;;;;;5036211;28;20404;-61
2021/11/10 02:48:18;;;;;;;0.57;0.20;;;;;;;;;;5037916;28;20025;-60
2021/11/10 02:50:44;;;;;;;0.15;0.10;;;;;;;;;;5038212;28;20044;-60
2021/11/10 02:53:09;;;;;;;5.88;0.82;;;;;;;;;;5037563;28;20044;-60
2021/11/10 02:55:35;;;;;;;1.70;0.77;;;;;;;;;;5037511;28;20400;-60
2021/11/10 02:58:00;;;;;;;1.40;0.63;;;;;;;;;;5035597;28;20032;-61
2021/11/10 03:00:26;;;;;;;1.13;0.38;;;;;;;;;;5039027;28;20029;-60
2021/11/10 03:02:51;;;;;;;0.40;0.20;;;;;;;;;;5040228;28;20033;-60
2021/11/10 03:05:17;;;;;;;1.05;0.55;;;;;;;;;;5035235;28;20033;-61
2021/11/10 03:07:42;;;;;;;0.80;0.40;;;;;;;;;;5041112;28;20444;-60
2021/11/10 03:10:08;;;;;;;1.50;0.60;;;;;;;;;;5038173;28;20029;-61
2021/11/10 03:12:35;;;;;;;1.00;0.63;;;;;;;;;;5040705;28;20029;-60
2021/11/10 03:15:01;;;;;;;1.10;0.28;;;;;;;;;;5037047;28;20089;-60
2021/11/10 03:17:26;;;;;;;0.52;0.30;;;;;;;;;;5039114;28;20104;-60
2021/11/10 03:19:52;;;;;;;0.70;0.40;;;;;;;;;;5041164;28;20033;-60
2021/11/10 03:22:18;;;;;;;0.40;0.30;;;;;;;;;;5036643;28;20032;-60
2021/11/10 03:24:43;;;;;;;6.35;0.60;;;;;;;;;;5037631;28;20022;-61
2021/11/10 03:27:09;;;;;;;0.80;0.40;;;;;;;;;;5040179;28;20025;-60
2021/11/10 03:29:36;;;;;;;0.90;0.30;;;;;;;;;;5036600;28;20021;-61
2021/11/10 03:32:01;;;;;;;0.47;0.30;;;;;;;;;;5038569;28;20086;-61
2021/11/10 03:34:27;;;;;;;2.33;0.45;;;;;;;;;;5038482;28;20460;-60
2021/11/10 03:36:52;;;;;;;4.88;0.40;;;;;;;;;;5040655;28;20032;-60
2021/11/10 03:39:18;;;;;;;0.57;0.28;;;;;;;;;;5037179;28;20036;-60
2021/11/10 03:41:44;;;;;;;1.23;0.68;;;;;;;;;;5037375;28;20096;-60
2021/11/10 03:44:09;;;;;;;0.30;0.30;;;;;;;;;;5036275;28;20473;-60
2021/11/10 03:46:42;;;;;;;2.38;0.55;;;;;;;;;;5039784;28;20088;-61
2021/11/10 03:49:07;;;;;;;2.55;0.82;;;;;;;;;;5035110;28;20041;-60
2021/11/10 03:51:33;;;;;;;1.30;0.45;;;;;;;;;;5036941;28;20017;-61
2021/11/10 03:53:58;;;;;;;2.05;0.90;;;;;;;;;;5040735;28;20071;-60
2021/11/10 03:56:23;;;;;;;1.40;0.73;;;;;;;;;;5037224;28;20036;-61
2021/11/10 03:58:49;;;;;;;2.05;0.80;;;;;;;;;;5036464;28;20025;-61
2021/11/10 04:01:15;;;;;;;1.35;0.68;;;;;;;;;;5041857;28;20082;-61
2021/11/10 04:03:40;;;;;;;1.42;0.55;;;;;;;;;;5041653;28;20024;-61
2021/11/10 04:06:06;;;;;;;6.35;1.30;;;;;;;;;;5038543;28;20021;-61
2021/11/10 04:08:31;;;;;;;2.78;0.85;;;;;;;;;;5033031;28;20021;-60
2021/11/10 04:10:59;;;;;;;5.32;2.67;;;;;;;;;;5035952;28;20645;-60
2021/11/10 04:13:25;;;;;;;2.83;0.77;;;;;;;;;;5035903;28;20135;-61
2021/11/10 04:15:50;;;;;;;4.53;1.25;;;;;;;;;;5034353;28;20033;-60
2021/11/10 04:18:15;;;;;;;4.63;1.48;;;;;;;;;;5035639;28;20056;-60
2021/11/10 04:20:41;;;;;;;2.25;1.33;;;;;;;;;;5037623;28;20037;-60
2021/11/10 04:23:06;;;;;;;2.65;0.93;;;;;;;;;;5037764;28;20032;-61
2021/11/10 04:25:32;;;;;;;19.33;4.03;;;;;;;;;;5037530;28;20097;-61
2021/11/10 04:27:57;;;;;;;11.75;3.25;;;;;;;;;;5036282;28;20017;-60
2021/11/10 04:30:22;;;;;;;13.32;3.47;;;;;;;;;;5036321;28;20055;-60
2021/11/10 04:32:48;;;;;;;5.15;2.33;;;;;;;;;;5037258;28;20041;-60
2021/11/10 04:35:14;;;;;;;8.10;3.22;;;;;;;;;;5037859;28;20489;-62
2021/11/10 04:37:41;;;;;;;8.30;2.47;;;;;;;;;;5037471;28;20108;-61
2021/11/10 04:40:07;;;;;;;8.88;3.47;;;;;;;;;;5038900;28;20017;-60
2021/11/10 04:42:33;;;;;;;11.48;4.22;;;;;;;;;;5033706;28;20036;-60
2021/11/10 04:45:04;;;;;;;11.40;2.58;;;;;;;;;;5034985;28;20017;-60
2021/11/10 04:47:29;;;;;;;8.57;2.22;;;;;;;;;;5034728;28;20100;-61
2021/11/10 04:49:55;;;;;;;6.53;1.27;;;;;;;;;;5037905;28;20132;-61
2021/11/10 04:52:20;;;;;;;6.00;2.60;;;;;;;;;;5035952;28;20032;-61
2021/11/10 04:54:45;;;;;;;3.65;1.35;;;;;;;;;;5037482;28;20134;-60
2021/11/10 04:57:11;;;;;;;3.50;2.20;;;;;;;;;;5036524;28;20123;-61
2021/11/10 04:59:36;;;;;;;6.65;2.83;;;;;;;;;;5035878;28;20033;-60
2021/11/10 05:04:38;;;;;;;6.28;2.08;;;;;;;;;;5039689;28;20040;-60
2021/11/10 05:07:04;;;;;;;8.13;2.13;;;;;;;;;;5036878;28;20099;-61
2021/11/10 05:09:29;;;;;;;9.50;2.92;;;;;;;;;;5037422;28;20504;-60
2021/11/10 05:11:55;;;;;;;11.20;2.40;;;;;;;;;;5035267;28;20492;-61
2021/11/10 05:14:20;;;;;;;11.70;3.50;;;;;;;;;;5036122;28;20475;-61
2021/11/10 05:16:46;;;;;;;5.97;2.75;;;;;;;;;;5034627;28;20107;-61
2021/11/10 05:19:11;;;;;;;4.15;1.73;;;;;;;;;;5068511;28;20040;-61
2021/11/10 05:21:36;;;;;;;9.85;2.90;;;;;;;;;;5036839;28;20024;-61
2021/11/10 05:24:02;;;;;;;9.23;3.38;;;;;;;;;;5033161;28;20048;-61
2021/11/10 05:26:28;;;;;;;3.13;1.13;;;;;;;;;;5038770;28;20056;-61
2021/11/10 05:28:53;;;;;;;11.18;3.55;;;;;;;;;;5036055;28;20029;-61
2021/11/10 05:31:19;;;;;;;10.10;2.40;;;;;;;;;;5036359;28;20106;-61
2021/11/10 05:33:44;;;;;;;6.45;3.42;;;;;;;;;;5042749;28;20024;-61
2021/11/10 05:36:09;;;;;;;5.40;2.58;;;;;;;;;;5034200;28;20063;-61
2021/11/10 05:38:35;;;;;;;9.00;3.25;;;;;;;;;;5037053;28;20028;-61
2021/11/10 05:41:00;;;;;;;14.63;4.38;;;;;;;;;;5037622;28;20389;-61
2021/11/10 05:43:26;;;;;;;3.65;2.95;;;;;;;;;;5036571;28;20369;-61
2021/11/10 05:45:51;;;;;;;4.65;2.47;;;;;;;;;;5037044;28;20503;-61
2021/11/10 05:48:16;;;;;;;5.63;2.30;;;;;;;;;;5036193;28;20021;-62
2021/11/10 05:50:42;;;;;;;2.60;1.50;;;;;;;;;;5032744;28;20456;-61
2021/11/10 05:53:07;;;;;;;11.75;3.03;;;;;;;;;;5037146;28;20738;-62
2021/11/10 05:55:34;;;;;;;8.85;3.42;;;;;;;;;;5032718;28;20029;-61
2021/11/10 05:57:59;;;;;;;5.25;2.80;;;;;;;;;;5037184;28;20029;-61
2021/11/10 06:00:24;;;;;;;2.72;1.55;;;;;;;;;;5035109;28;20025;-61
2021/11/10 06:02:50;;;;;;;12.75;4.55;;;;;;;;;;5032784;28;20098;-61
2021/11/10 06:05:16;;;;;;;11.82;4.35;;;;;;;;;;5035846;28;20401;-61
2021/11/10 06:07:42;;;;;;;6.80;3.28;;;;;;;;;;5036028;28;20025;-61
2021/11/10 06:10:07;;;;;;;16.58;4.60;;;;;;;;;;5030956;28;20017;-61
2021/11/10 06:12:33;;;;;;;20.42;5.97;;;;;;;;;;5033373;28;20026;-61
2021/11/10 06:14:58;;;;;;;14.95;4.85;;;;;;;;;;5035177;28;20071;-61
2021/11/10 06:17:23;;;;;;;9.50;2.70;;;;;;;;;;5036013;28;20036;-61
2021/11/10 06:19:49;;;;;;;8.27;2.58;;;;;;;;;;5035711;28;20028;-60
2021/11/10 06:22:14;;;;;;;11.10;3.95;;;;;;;;;;5034523;28;20052;-61
2021/11/10 06:24:39;;;;;;;12.93;5.15;;;;;;;;;;5033949;28;20546;-61
2021/11/10 06:27:05;;;;;;;13.93;3.65;;;;;;;;;;5035878;28;20060;-61
2021/11/10 06:29:30;;;;;;;14.30;3.40;;;;;;;;;;5036415;28;20358;-60
2021/11/10 06:31:56;;;;;;;8.85;3.42;;;;;;;;;;5036716;28;20025;-61
2021/11/10 06:34:21;;;;;;;7.10;3.33;;;;;;;;;;5038653;28;20029;-61
2021/11/10 06:36:46;;;;;;;5.57;2.67;;;;;;;;;;5036078;28;20026;-60
2021/11/10 06:39:12;;;;;;;7.28;3.38;;;;;;;;;;5036379;28;20022;-61
2021/11/10 06:41:37;;;;;;;12.48;4.07;;;;;;;;;;5036621;28;20028;-61
2021/11/10 06:44:03;;;;;;;9.45;3.10;;;;;;;;;;5043422;28;20013;-60
2021/11/10 06:46:28;;;;;;;9.45;3.72;;;;;;;;;;5037204;28;20021;-60
2021/11/10 06:48:54;;;;;;;12.10;3.97;;;;;;;;;;5036825;28;20408;-60
2021/11/10 06:51:20;;;;;;;10.63;2.60;;;;;;;;;;5037164;28;20078;-60
2021/11/10 06:53:46;;;;;;;8.40;4.97;;;;;;;;;;5034429;28;20556;-60
2021/11/10 06:56:11;;;;;;;12.25;3.88;;;;;;;;;;5033904;28;20514;-60
2021/11/10 06:58:37;;;;;;;6.90;3.13;;;;;;;;;;5037132;28;20029;-60
2021/11/10 07:01:03;;;;;;;19.55;5.50;;;;;;;;;;5039503;28;20044;-60
2021/11/10 07:03:28;;;;;;;8.55;2.50;;;;;;;;;;5033388;28;20527;-60
2021/11/10 07:05:54;;;;;;;10.30;3.53;;;;;;;;;;5031238;28;20080;-60
2021/11/10 07:08:19;;;;;;;9.50;3.75;;;;;;;;;;5033775;28;20052;-60
2021/11/10 07:10:44;;;;;;;13.68;3.30;;;;;;;;;;5035077;28;20050;-62
2021/11/10 07:13:10;;;;;;;12.90;7.63;;;;;;;;;;5034090;28;20053;-61
2021/11/10 07:15:35;;;;;;;16.27;6.35;;;;;;;;;;5033454;28;20075;-63
2021/11/10 07:18:00;;;;;;;4.25;2.90;;;;;;;;;;5034178;28;20037;-62
2021/11/10 07:20:26;;;;;;;6.68;3.45;;;;;;;;;;5033381;28;20036;-62
2021/11/10 07:22:53;;;;;;;10.18;3.05;;;;;;;;;;5035469;28;20033;-61
2021/11/10 07:25:18;;;;;;;19.83;4.10;;;;;;;;;;5034655;28;20036;-62
2021/11/10 07:27:44;;;;;;;10.80;3.75;;;;;;;;;;5035871;28;20021;-61
2021/11/10 07:30:10;;;;;;;18.70;5.55;;;;;;;;;;5040816;28;20353;-60
2021/11/10 07:32:36;;;;;;;8.95;3.22;;;;;;;;;;5037064;28;20021;-61
2021/11/10 07:35:02;;;;;;;10.90;2.67;;;;;;;;;;5036276;28;20107;-60
2021/11/10 07:37:28;;;;;;;11.88;2.58;;;;;;;;;;5039270;28;20103;-60
2021/11/10 07:39:53;;;;;;;7.47;3.55;;;;;;;;;;5037069;28;20570;-60
2021/11/10 07:42:18;;;;;;;9.93;3.65;;;;;;;;;;5036659;28;20029;-60
2021/11/10 07:44:44;;;;;;;5.53;3.47;;;;;;;;;;5036797;28;20073;-60
2021/11/10 07:47:17;;;;;;;9.68;3.92;;;;;;;;;;5035168;28;20607;-60
2021/11/10 07:49:44;;;;;;;7.75;3.25;;;;;;;;;;5037930;28;20056;-59
2021/11/10 07:52:09;;;;;;;17.25;4.85;;;;;;;;;;5038354;28;20025;-60
2021/11/10 07:54:35;;;;;;;7.35;3.88;;;;;;;;;;5037037;28;20407;-60
2021/11/10 07:57:00;;;;;;;10.00;5.93;;;;;;;;;;5035278;28;20078;-59
2021/11/10 07:59:25;;;;;;;11.45;4.82;;;;;;;;;;5037313;28;20029;-60
2021/11/10 08:01:51;;;;;;;6.63;3.97;;;;;;;;;;5034589;28;20524;-60
2021/11/10 08:04:16;;;;;;;8.65;2.88;;;;;;;;;;5035380;28;20111;-60
2021/11/10 08:06:42;;;;;;;17.40;4.18;;;;;;;;;;5039178;28;20028;-61
2021/11/10 08:09:07;;;;;;;15.85;5.68;;;;;;;;;;5035931;28;20013;-60
2021/11/10 08:11:32;;;;;;;12.88;7.18;;;;;;;;;;5032757;28;20026;-61
2021/11/10 08:13:58;;;;;;;9.63;4.30;;;;;;;;;;5037407;28;20420;-61
2021/11/10 08:16:24;;;;;;;5.43;2.80;;;;;;;;;;5040859;28;20456;-61
2021/11/10 08:18:50;;;;;;;13.38;2.63;;;;;;;;;;5035962;28;20557;-60
2021/11/10 08:21:16;;;;;;;18.15;5.85;;;;;;;;;;5038569;28;20507;-60
2021/11/10 08:23:41;;;;;;;3.08;1.75;;;;;;;;;;5039512;28;20021;-61
2021/11/10 08:26:07;;;;;;;20.67;4.07;;;;;;;;;;5038390;28;20024;-65
2021/11/10 08:28:32;;;;;;;6.03;2.70;;;;;;;;;;5036211;28;20550;-65
2021/11/10 08:30:58;;;;;;;10.07;4.10;;;;;;;;;;5038164;28;20024;-68
2021/11/10 08:33:23;;;;;;;9.60;3.28;;;;;;;;;;5036469;28;20056;-60
2021/11/10 08:35:49;;;;;;;23.17;6.50;;;;;;;;;;5039262;28;20029;-61
2021/11/10 08:38:15;;;;;;;20.90;5.10;;;;;;;;;;5038474;28;20382;-48
2021/11/10 08:40:40;;;;;;;15.57;7.30;;;;;;;;;;5038958;28;20021;-50
2021/11/10 08:43:11;;;;;;;14.85;5.55;;;;;;;;;;5035809;28;20017;-50
2021/11/10 08:45:38;;;;;;;24.30;7.72;;;;;;;;;;5038138;28;20548;-51
2021/11/10 08:48:05;;;;;;;10.68;4.78;;;;;;;;;;5036050;28;20024;-52
2021/11/10 08:50:31;;;;;;;14.90;4.63;;;;;;;;;;5035411;28;20124;-51
2021/11/10 08:52:57;;;;;;;23.48;5.35;;;;;;;;;;5038106;28;20593;-54
2021/11/10 08:55:22;;;;;;;17.95;5.32;;;;;;;;;;5033210;28;20018;-50
2021/11/10 08:57:49;;;;;;;16.20;4.93;;;;;;;;;;5031088;28;20025;-52
2021/11/10 09:00:16;;;;;;;10.80;6.13;;;;;;;;;;5034740;28;20400;-53
2021/11/10 09:02:41;;;;;;;12.23;4.55;;;;;;;;;;5037062;28;20060;-53
2021/11/10 09:05:11;;;;;;;10.13;4.15;;;;;;;;;;5033052;28;20056;-52
2021/11/10 09:07:37;;;;;;;5.85;3.47;;;;;;;;;;5035427;28;20467;-54
2021/11/10 09:10:04;;;;;;;4.45;3.28;;;;;;;;;;5032159;28;20024;-51
2021/11/10 09:12:29;;;;;;;7.43;2.20;;;;;;;;;;5032850;28;20025;-51
2021/11/10 09:14:55;;;;;;;9.48;3.80;;;;;;;;;;5032803;28;20644;-50
2021/11/10 09:17:20;;;;;;;5.20;3.05;;;;;;;;;;5035430;28;20025;-51
2021/11/10 09:19:46;;;;;;;9.48;5.07;;;;;;;;;;5034077;28;20438;-53
2021/11/10 09:22:11;;;;;;;11.95;3.00;;;;;;;;;;5035017;28;20079;-54
2021/11/10 09:24:39;;;;;;;7.28;1.98;;;;;;;;;;5034566;28;20122;-54
2021/11/10 09:27:05;;;;;;;7.45;4.03;;;;;;;;;;5033684;28;20056;-53
2021/11/10 09:29:30;;;;;;;14.75;4.45;;;;;;;;;;5032949;28;20057;-51
2021/11/10 09:31:56;;;;;;;5.03;2.88;;;;;;;;;;5034560;28;20765;-53
2021/11/10 09:34:21;;;;;;;8.05;3.40;;;;;;;;;;5034261;28;20220;-55
2021/11/10 09:36:47;;;;;;;9.93;3.92;;;;;;;;;;5032680;28;20025;-54
2021/11/10 09:39:13;;;;;;;10.77;2.78;;;;;;;;;;5034902;28;20461;-51
2021/11/10 09:41:39;;;;;;;9.20;2.83;;;;;;;;;;5033353;28;20064;-54
2021/11/10 09:44:04;;;;;;;14.70;3.15;;;;;;;;;;5038059;28;20424;-54
2021/11/10 09:46:30;;;;;;;16.92;4.20;;;;;;;;;;5034624;28;20484;-52
2021/11/10 09:48:58;;;;;;;6.05;1.65;;;;;;;;;;5034142;28;20068;-54
2021/11/10 09:51:23;;;;;;;5.18;1.75;;;;;;;;;;5034765;28;20063;-53
2021/11/10 09:53:48;;;;;;;6.65;4.20;;;;;;;;;;5030514;28;20446;-55
2021/11/10 09:56:14;;;;;;;8.70;3.20;;;;;;;;;;5032466;28;20033;-53
2021/11/10 09:58:40;;;;;;;11.18;3.30;;;;;;;;;;5031881;28;20020;-52
2021/11/10 10:01:08;;;;;;;13.38;3.30;;;;;;;;;;5033130;28;20501;-53
2021/11/10 10:03:34;;;;;;;9.95;3.67;;;;;;;;;;5031771;28;20142;-53
2021/11/10 10:06:00;;;;;;;21.65;7.30;;;;;;;;;;5032013;28;20021;-54
2021/11/10 10:08:25;;;;;;;8.23;3.35;;;;;;;;;;5034940;28;20024;-52
2021/11/10 10:10:51;;;;;;;8.75;2.30;;;;;;;;;;5032153;28;20027;-50
2021/11/10 10:13:17;;;;;;;9.38;3.85;;;;;;;;;;5032881;28;20029;-53
2021/11/10 10:15:43;;;;;;;5.28;2.22;;;;;;;;;;5034030;28;20119;-53
2021/11/10 10:18:13;;;;;;;9.70;4.38;;;;;;;;;;5029685;28;20028;-53
2021/11/10 10:20:38;;;;;;;6.10;2.58;;;;;;;;;;5033099;28;20025;-51
2021/11/10 10:23:06;;;;;;;10.80;4.78;;;;;;;;;;5033369;28;20036;-52
2021/11/10 10:25:37;;;;;;;7.82;4.25;;;;;;;;;;5031031;28;20081;-50
2021/11/10 10:28:02;;;;;;;8.80;3.67;;;;;;;;;;5030283;28;20049;-52
2021/11/10 10:30:31;;;;;;;8.95;4.28;;;;;;;;;;5032507;28;20065;-54
2021/11/10 10:32:59;;;;;;;4.45;1.45;;;;;;;;;;5031580;28;20029;-53
2021/11/10 10:35:26;;;;;;;10.75;5.30;;;;;;;;;;5029422;28;20041;-49
2021/11/10 10:37:51;;;;;;;11.35;5.78;;;;;;;;;;5031703;28;20067;-54
2021/11/10 10:40:19;;;;;;;7.55;3.17;;;;;;;;;;5031929;28;20053;-51
2021/11/10 10:42:44;;;;;;;4.97;1.95;;;;;;;;;;5032572;28;20436;-52
2021/11/10 10:45:25;;;;;;;9.57;4.63;;;;;;;;;;5030700;28;20477;-54
2021/11/10 10:47:55;;;;;;;9.35;3.28;;;;;;;;;;5031816;28;20036;-54
2021/11/10 10:50:34;;;;;;;10.95;6.75;;;;;;;;;;5030778;28;20083;-54
2021/11/10 10:53:00;;;;;;;8.15;3.47;;;;;;;;;;5031060;28;20021;-53
2021/11/10 10:55:36;;;;;;;5.00;2.17;;;;;;;;;;5031664;28;20327;-61
2021/11/10 10:58:02;;;;;;;5.10;2.80;;;;;;;;;;5033702;28;20025;-45
2021/11/10 11:00:32;;;;;;;2.28;0.95;;;;;;;;;;5031919;28;20050;-44
2021/11/10 11:03:18;;;;;;;4.72;1.63;;;;;;;;;;5031585;28;20036;-46
2021/11/10 11:05:43;;;;;;;8.55;4.22;;;;;;;;;;5018513;28;20134;-43
2021/11/10 11:08:24;;;;;;;8.35;4.28;;;;;;;;;;5035994;28;20017;-48
2021/11/10 11:10:49;;;;;;;2.55;1.77;;;;;;;;;;5035327;28;20460;-47
2021/11/10 11:13:19;;;;;;;16.70;4.28;;;;;;;;;;5034679;28;20080;-49
2021/11/10 11:16:06;;;;;;;8.33;2.30;;;;;;;;;;5033710;28;20112;-46
2021/11/10 11:18:32;;;;;;;3.95;2.58;;;;;;;;;;5039312;28;20029;-44
2021/11/10 11:20:58;;;;;;;8.05;6.20;;;;;;;;;;5034730;28;20476;-45
2021/11/10 11:23:39;;;;;;;7.38;3.95;;;;;;;;;;5037823;28;20091;-44
2021/11/10 11:26:06;;;;;;;5.85;3.28;;;;;;;;;;5037588;28;20055;-46
2021/11/10 11:28:37;;;;;;;13.38;5.93;;;;;;;;;;5037710;28;20032;-47
2021/11/10 11:31:02;;;;;;;9.00;5.45;;;;;;;;;;5035805;28;20079;-50
2021/11/10 11:33:28;;;;;;;8.57;4.72;;;;;;;;;;5036232;28;20347;-45
2021/11/10 11:35:57;;;;;;;5.78;3.05;;;;;;;;;;5037770;28;20032;-48
2021/11/10 11:38:23;;;;;;;10.60;5.55;;;;;;;;;;5038018;28;20480;-46
2021/11/10 11:40:50;;;;;;;5.20;3.28;;;;;;;;;;5039091;28;20100;-45
2021/11/10 11:43:17;;;;;;;5.20;2.67;;;;;;;;;;5036604;28;20031;-45
2021/11/10 11:45:45;;;;;;;4.25;2.22;;;;;;;;;;5034169;28;20520;-42
2021/11/10 11:48:10;;;;;;;3.65;2.42;;;;;;;;;;5039694;28;20037;-46
2021/11/10 11:50:36;;;;;;;4.88;3.60;;;;;;;;;;5039438;28;20816;-45
2021/11/10 11:53:01;;;;;;;14.30;4.18;;;;;;;;;;5035211;28;20072;-44
2021/11/10 11:55:33;;;;;;;4.57;2.13;;;;;;;;;;5038713;28;20044;-41
2021/11/10 11:58:04;;;;;;;3.72;1.95;;;;;;;;;;5035151;28;20032;-42
2021/11/10 12:00:50;;;;;;;5.15;2.38;;;;;;;;;;5038073;28;20033;-44
2021/11/10 12:03:15;;;;;;;7.88;4.03;;;;;;;;;;5034583;28;20029;-43
2021/11/10 12:05:41;;;;;;;5.63;2.30;;;;;;;;;;5034272;28;20031;-47
2021/11/10 12:08:06;;;;;;;5.00;3.42;;;;;;;;;;5032732;28;20017;-43
2021/11/10 12:10:35;;;;;;;8.07;2.15;;;;;;;;;;5036917;28;20112;-45
2021/11/10 12:13:21;;;;;;;3.90;2.58;;;;;;;;;;5033505;28;20092;-43
2021/11/10 12:16:18;;;;;;;11.15;4.47;;;;;;;;;;5031612;28;20025;-46
2021/11/10 12:18:44;;;;;;;6.28;2.75;;;;;;;;;;5035099;28;20628;-44
2021/11/10 12:21:10;;;;;;;6.60;3.88;;;;;;;;;;5033311;28;20033;-43
2021/11/10 12:24:05;;;;;;;14.02;3.30;;;;;;;;;;5035155;28;20123;-44
2021/11/10 12:26:30;;;;;;;8.32;3.65;;;;;;;;;;5014912;28;20547;-45
2021/11/10 12:28:59;;;;;;;8.27;1.58;;;;;;;;;;5033831;28;20021;-43
2021/11/10 12:31:29;;;;;;;6.65;3.47;;;;;;;;;;5033398;28;20025;-46
2021/11/10 12:34:02;;;;;;;8.68;7.50;;;;;;;;;;5034026;28;20021;-48
2021/11/10 12:36:45;;;;;;;8.82;5.32;;;;;;;;;;5034530;28;20079;-49
2021/11/10 12:39:11;;;;;;;7.90;5.20;;;;;;;;;;5031603;28;20033;-45
2021/11/10 12:41:46;;;;;;;7.88;5.75;;;;;;;;;;5036603;28;20500;-53
2021/11/10 12:44:31;;;;;;;10.07;5.43;;;;;;;;;;5031734;28;20037;-45
2021/11/10 12:46:57;;;;;;;12.63;5.88;;;;;;;;;;5032838;28;20436;-44
2021/11/10 12:49:22;;;;;;;16.67;5.30;;;;;;;;;;5036411;28;20619;-45
2021/11/10 12:52:06;;;;;;;7.03;4.45;;;;;;;;;;5035666;28;20594;-44
2021/11/10 12:54:32;;;;;;;12.13;8.05;;;;;;;;;;5036746;28;20021;-57
2021/11/10 12:56:58;;;;;;;19.83;11.68;;;;;;;;;;5036177;28;20379;-58
2021/11/10 12:59:28;;;;;;;12.25;9.43;;;;;;;;;;5039554;28;20025;-45
2021/11/10 13:01:54;;;;;;;8.43;5.85;;;;;;;;;;5033983;28;20115;-42
2021/11/10 13:04:24;;;;;;;8.55;4.35;;;;;;;;;;5040072;28;20021;-42
2021/11/10 13:06:52;;;;;;;7.25;5.60;;;;;;;;;;5035189;28;20117;-43
2021/11/10 13:09:37;;;;;;;16.20;11.40;;;;;;;;;;5034342;28;20025;-46
2021/11/10 13:12:04;;;;;;;12.88;10.93;;;;;;;;;;5032378;28;20017;-46
2021/11/10 13:14:29;;;;;;;12.60;8.60;;;;;;;;;;5033113;28;20029;-46
2021/11/10 13:16:56;;;;;;;12.70;10.57;;;;;;;;;;5035129;28;20013;-45
2021/11/10 13:19:37;;;;;;;15.80;12.07;;;;;;;;;;5036882;28;20091;-45
2021/11/10 13:22:03;;;;;;;12.88;11.55;;;;;;;;;;5037959;28;20086;-49
2021/11/10 13:24:28;;;;;;;19.00;13.63;;;;;;;;;;5035278;28;20025;-47
2021/11/10 13:26:55;;;;;;;16.40;14.55;;;;;;;;;;5032206;28;20018;-48
2021/11/10 13:29:22;;;;;;;16.00;11.23;;;;;;;;;;5034118;28;20171;-49
2021/11/10 13:31:47;;;;;;;23.95;10.52;;;;;;;;;;5034551;28;20021;-47
2021/11/10 13:34:12;;;;;;;14.25;11.55;;;;;;;;;;5035259;28;20127;-43
2021/11/10 13:36:39;;;;;;;14.95;13.48;;;;;;;;;;5033462;28;20045;-42
2021/11/10 13:39:06;;;;;;;15.10;13.45;;;;;;;;;;5037763;28;20025;-42
2021/11/10 13:41:36;;;;;;;15.15;9.98;;;;;;;;;;5033781;28;20018;-54
2021/11/10 13:44:09;;;;;;;14.43;10.68;;;;;;;;;;5034555;28;20036;-41
2021/11/10 13:46:34;;;;;;;17.90;12.50;;;;;;;;;;5034387;28;20029;-45
2021/11/10 13:49:03;;;;;;;13.63;9.65;;;;;;;;;;5037883;28;20045;-54
2021/11/10 13:51:28;;;;;;;19.98;14.85;;;;;;;;;;5030980;28;20636;-52
2021/11/10 13:54:04;;;;;;;15.63;12.80;;;;;;;;;;5037663;28;20595;-55
2021/11/10 13:56:39;;;;;;;10.05;7.07;;;;;;;;;;5032355;28;20025;-51
2021/11/10 13:59:08;;;;;;;11.45;7.18;;;;;;;;;;5031878;28;20481;-42
2021/11/10 14:01:34;;;;;;;8.65;7.38;;;;;;;;;;5032181;28;20037;-52
2021/11/10 14:03:59;;;;;;;7.88;5.72;;;;;;;;;;5034869;28;20434;-47
2021/11/10 14:06:24;;;;;;;6.43;4.22;;;;;;;;;;5036055;28;20395;-52
2021/11/10 14:09:09;;;;;;;10.77;5.18;;;;;;;;;;5033922;28;20095;-48
2021/11/10 14:11:34;;;;;;;6.95;5.57;;;;;;;;;;5034022;28;20037;-51
2021/11/10 14:13:59;;;;;;;13.48;6.00;;;;;;;;;;5037788;28;20048;-50
2021/11/10 14:16:25;;;;;;;10.95;4.80;;;;;;;;;;5035217;28;20472;-49
2021/11/10 14:18:50;;;;;;;9.18;8.35;;;;;;;;;;5034791;28;20030;-47
2021/11/10 14:21:15;;;;;;;9.77;8.38;;;;;;;;;;5034167;28;20490;-42
2021/11/10 14:23:41;;;;;;;10.93;8.32;;;;;;;;;;5035828;28;20021;-45
2021/11/10 14:26:14;;;;;;;7.70;6.00;;;;;;;;;;5034703;28;20183;-43
2021/11/10 14:28:39;;;;;;;9.75;5.28;;;;;;;;;;5034694;28;20060;-45
2021/11/10 14:31:09;;;;;;;6.20;4.55;;;;;;;;;;5038570;28;20466;-45
2021/11/10 14:33:37;;;;;;;7.95;5.10;;;;;;;;;;5038422;28;20021;-46
2021/11/10 14:36:08;;;;;;;2.92;2.47;;;;;;;;;;5037226;28;20037;-42
2021/11/10 14:38:38;;;;;;;10.15;5.30;;;;;;;;;;5035280;28;20075;-45